Hardisty, Canada
Current Conditions -  °F | °C
As of 8:00 PM on Saturday 25 Oct 2014 (Local Time) from CYLL Reporting Station
Overcast Overcast  
Wind Chill: 31°   Ceiling: 7500
Heat Index: 39°   Visibility: 15mi
Dew Point: 27°   Wind: 14mph
Humidity: 61%   Direction: 100°E
Pressure: 29.72"   Gusts: NA
Location:  52.68°N, 111.3°W
Report Text: CYLL 260200Z 10012KT 15SM OVC075 04/M03 A2972 RMK AC8 PRESFR SLP094
Loading
Personal Weather Stations






























Interactive Weather Map
Tropical Storm Tracking
New forecast layout! Learn more

10-Day Weather Forecast

Advertisements
Track Severe Weather on mobile